createdAt,value
2023-10-11T00:00:21.514Z,0.00
2023-10-11T00:01:20.570Z,0.00
2023-10-11T00:02:20.658Z,0.02
2023-10-11T00:03:20.760Z,0.00
2023-10-11T00:04:20.907Z,0.00
2023-10-11T00:05:21.932Z,0.00
2023-10-11T00:06:21.013Z,0.00
2023-10-11T00:07:21.035Z,0.00
2023-10-11T00:08:20.305Z,0.00
2023-10-11T00:09:20.343Z,0.00
2023-10-11T00:10:20.281Z,0.00
2023-10-11T00:11:20.349Z,0.00
2023-10-11T00:12:21.427Z,0.00
2023-10-11T00:13:20.100Z,0.00
2023-10-11T00:14:20.232Z,0.00
2023-10-11T00:15:21.447Z,0.00
2023-10-11T00:16:20.432Z,0.00
2023-10-11T00:17:20.564Z,0.00
2023-10-11T00:18:20.871Z,0.00
2023-10-11T00:19:20.900Z,0.00
2023-10-11T00:20:19.862Z,0.00
2023-10-11T00:21:20.092Z,0.00
2023-10-11T00:22:20.050Z,0.00
2023-10-11T00:23:21.227Z,0.00
2023-10-11T00:24:21.354Z,0.00
2023-10-11T00:25:20.391Z,0.00
2023-10-11T00:26:21.575Z,0.00
2023-10-11T00:27:20.649Z,0.00
2023-10-11T00:28:20.695Z,0.00
2023-10-11T00:29:19.769Z,0.00
2023-10-11T00:30:19.863Z,0.00
2023-10-11T00:31:19.964Z,0.00
2023-10-11T00:33:30.829Z,0.00
2023-10-11T00:34:21.431Z,0.00
2023-10-11T00:35:20.317Z,0.00
2023-10-11T00:36:19.764Z,0.00
2023-10-11T00:37:19.833Z,0.00
2023-10-11T00:38:20.350Z,0.00
2023-10-11T00:39:20.491Z,0.00
2023-10-11T00:40:20.127Z,0.00
2023-10-11T00:41:21.373Z,0.00
2023-10-11T00:42:20.367Z,0.00
2023-10-11T00:43:20.517Z,0.00
2023-10-11T00:44:20.874Z,0.00
2023-10-11T00:45:20.556Z,0.00
2023-10-11T00:46:19.846Z,0.00
2023-10-11T00:47:19.813Z,0.00
2023-10-11T00:48:19.989Z,0.02
2023-10-11T00:49:20.609Z,0.02
2023-10-11T00:50:20.139Z,0.00
2023-10-11T00:51:20.264Z,0.00
2023-10-11T00:52:20.319Z,0.00
2023-10-11T00:53:20.392Z,0.00
2023-10-11T00:54:19.504Z,0.00
2023-10-11T00:55:19.607Z,0.00
2023-10-11T00:56:19.654Z,0.00
2023-10-11T00:57:19.856Z,0.00
2023-10-11T00:58:19.849Z,0.00
2023-10-11T00:59:20.176Z,0.00
2023-10-11T01:00:20.117Z,0.02
2023-10-11T01:01:20.244Z,0.00
2023-10-11T01:02:19.267Z,0.00
2023-10-11T01:03:19.499Z,0.00
2023-10-11T01:04:20.787Z,0.00
2023-10-11T01:05:19.591Z,0.00
2023-10-11T01:06:19.748Z,0.00
2023-10-11T01:07:19.832Z,0.00
2023-10-11T01:08:19.952Z,0.00
2023-10-11T01:09:20.992Z,0.00
2023-10-11T01:10:19.253Z,0.00
2023-10-11T01:11:19.348Z,0.00
2023-10-11T01:12:20.513Z,0.00
2023-10-11T01:13:19.537Z,0.02
2023-10-11T01:14:19.647Z,0.00
2023-10-11T01:15:19.794Z,0.00
2023-10-11T01:16:19.925Z,0.00
2023-10-11T01:17:19.999Z,0.00
2023-10-11T01:18:19.800Z,0.00
2023-10-11T01:19:19.691Z,0.00
2023-10-11T01:20:19.307Z,0.00
2023-10-11T01:21:19.421Z,0.00
2023-10-11T01:22:19.525Z,0.00
2023-10-11T01:23:19.612Z,0.00
2023-10-11T01:24:19.919Z,0.00
2023-10-11T01:25:19.879Z,0.00
2023-10-11T01:26:18.906Z,0.00
2023-10-11T01:27:19.086Z,0.00
2023-10-11T01:28:19.124Z,0.00
2023-10-11T01:29:19.484Z,0.00
2023-10-11T01:30:19.502Z,0.02
2023-10-11T01:31:19.412Z,0.00
2023-10-11T01:32:19.534Z,0.00
2023-10-11T01:33:19.735Z,0.02
2023-10-11T01:34:19.959Z,0.00
2023-10-11T01:35:18.798Z,0.00
2023-10-11T01:36:18.956Z,0.00
2023-10-11T01:37:19.059Z,0.00
2023-10-11T01:38:19.182Z,0.00
2023-10-11T01:39:23.693Z,0.00
2023-10-11T01:41:20.394Z,0.00
2023-10-11T01:42:19.524Z,0.00
2023-10-11T01:43:20.639Z,0.00
2023-10-11T01:44:18.667Z,0.00
2023-10-11T01:45:18.829Z,0.00
2023-10-11T01:46:18.907Z,0.00
2023-10-11T01:47:18.983Z,0.00
2023-10-11T01:48:19.201Z,0.00
2023-10-11T01:49:20.245Z,0.00
2023-10-11T01:50:19.312Z,0.00
2023-10-11T01:51:19.384Z,0.00
2023-10-11T01:52:20.267Z,0.00
2023-10-11T01:53:18.580Z,0.00
2023-10-11T01:54:19.697Z,0.00
2023-10-11T01:55:18.779Z,0.00
2023-10-11T01:56:18.889Z,0.00
2023-10-11T01:57:18.980Z,0.00
2023-10-11T01:58:19.116Z,0.00
2023-10-11T01:59:20.234Z,0.02
2023-10-11T02:00:19.251Z,0.00
2023-10-11T02:01:19.347Z,0.00
2023-10-11T02:02:19.429Z,0.00
2023-10-11T02:03:18.527Z,0.02
2023-10-11T02:04:20.082Z,0.00
2023-10-11T02:05:18.711Z,0.00
2023-10-11T02:06:18.802Z,0.00
2023-10-11T02:07:18.842Z,0.00
2023-10-11T02:08:18.959Z,0.00
2023-10-11T02:09:20.288Z,0.00
2023-10-11T02:10:19.722Z,0.00
2023-10-11T02:11:19.244Z,0.00
2023-10-11T02:12:18.491Z,0.00
2023-10-11T02:13:18.541Z,0.00
2023-10-11T02:14:18.654Z,0.00
2023-10-11T02:15:20.991Z,0.02
2023-10-11T02:16:18.915Z,0.00
2023-10-11T02:17:18.973Z,0.00
2023-10-11T02:18:19.174Z,0.00
2023-10-11T02:19:19.215Z,0.00
2023-10-11T02:20:19.210Z,0.00
2023-10-11T02:21:18.371Z,0.00
2023-10-11T02:22:18.362Z,0.00
2023-10-11T02:23:18.495Z,0.00
2023-10-11T02:24:18.665Z,0.00
2023-10-11T02:25:18.722Z,0.00
2023-10-11T02:26:18.244Z,0.00
2023-10-11T02:27:19.465Z,0.00
2023-10-11T02:28:18.527Z,0.00
2023-10-11T02:29:18.856Z,0.00
2023-10-11T02:30:18.838Z,0.00
2023-10-11T02:31:18.962Z,0.00
2023-10-11T02:32:19.056Z,0.00
2023-10-11T02:33:18.208Z,0.00
2023-10-11T02:34:18.295Z,0.00
2023-10-11T02:35:18.450Z,0.00
2023-10-11T02:36:18.664Z,0.00
2023-10-11T02:37:20.630Z,0.00
2023-10-11T02:38:18.773Z,0.00
2023-10-11T02:39:25.109Z,0.00
2023-10-11T02:40:17.952Z,0.00
2023-10-11T02:41:18.082Z,0.00
2023-10-11T02:42:18.224Z,0.00
2023-10-11T02:43:19.018Z,0.00
2023-10-11T02:44:18.391Z,0.00
2023-10-11T02:45:18.539Z,0.00
2023-10-11T02:46:18.621Z,0.00
2023-10-11T02:47:18.733Z,0.00
2023-10-11T02:48:18.885Z,0.00
2023-10-11T02:49:18.012Z,0.00
2023-10-11T02:50:17.997Z,0.00
2023-10-11T02:51:18.125Z,0.00
2023-10-11T02:52:18.205Z,0.00
2023-10-11T02:53:18.290Z,0.00
2023-10-11T02:54:18.539Z,0.00
2023-10-11T02:55:18.523Z,0.00
2023-10-11T02:56:18.676Z,0.00
2023-10-11T02:57:17.735Z,0.00
2023-10-11T02:58:17.899Z,0.00
2023-10-11T02:59:18.027Z,0.00
2023-10-11T03:00:18.087Z,0.00
2023-10-11T03:01:21.538Z,0.00
2023-10-11T03:02:18.286Z,0.00
2023-10-11T03:03:18.552Z,0.02
2023-10-11T03:04:18.596Z,0.00
2023-10-11T03:05:19.578Z,0.00
2023-10-11T03:06:17.673Z,0.00
2023-10-11T03:07:18.752Z,0.00
2023-10-11T03:08:17.820Z,0.00
2023-10-11T03:09:18.042Z,0.00
2023-10-11T03:10:17.993Z,0.00
2023-10-11T03:11:18.122Z,0.00
2023-10-11T03:12:18.309Z,0.00
2023-10-11T03:14:18.364Z,0.00
2023-10-11T03:15:18.556Z,0.02
2023-10-11T03:16:17.545Z,0.00
2023-10-11T03:17:17.658Z,0.00
2023-10-11T03:18:17.699Z,0.00
2023-10-11T03:19:17.955Z,0.02
2023-10-11T03:20:17.901Z,0.00
2023-10-11T03:21:18.094Z,0.00
2023-10-11T03:22:18.209Z,0.00
2023-10-11T03:23:18.277Z,0.00
2023-10-11T03:24:18.505Z,0.00
2023-10-11T03:25:17.498Z,0.02
2023-10-11T03:26:17.596Z,0.00
2023-10-11T03:27:17.738Z,0.00
2023-10-11T03:28:18.054Z,0.00
2023-10-11T03:29:18.092Z,0.00
2023-10-11T03:30:18.108Z,0.00
2023-10-11T03:31:17.378Z,0.00
2023-10-11T03:32:17.518Z,0.00
2023-10-11T03:33:17.676Z,0.00
2023-10-11T03:34:17.739Z,0.00
2023-10-11T03:35:17.858Z,0.02
2023-10-11T03:36:17.942Z,0.00
2023-10-11T03:37:18.005Z,0.00
2023-10-11T03:38:18.117Z,0.00
2023-10-11T03:39:17.418Z,0.00
2023-10-11T03:40:17.292Z,0.00
2023-10-11T03:41:17.367Z,0.00
2023-10-11T03:42:17.489Z,0.00
2023-10-11T03:43:17.602Z,0.00
2023-10-11T03:44:17.719Z,0.00
2023-10-11T03:45:18.905Z,0.00
2023-10-11T03:46:17.966Z,0.00
2023-10-11T03:47:17.053Z,0.00
2023-10-11T03:48:17.176Z,0.00
2023-10-11T03:49:18.514Z,0.00
2023-10-11T03:51:17.548Z,0.00
2023-10-11T03:52:17.596Z,0.00
2023-10-11T03:53:17.743Z,0.02
2023-10-11T03:54:18.796Z,0.00
2023-10-11T03:55:17.903Z,0.00
2023-10-11T03:56:16.978Z,0.00
2023-10-11T03:57:17.155Z,0.00
2023-10-11T03:58:17.226Z,0.00
2023-10-11T03:59:17.439Z,0.00
2023-10-11T04:00:20.027Z,0.00
2023-10-11T04:01:17.599Z,0.00
2023-10-11T04:02:17.712Z,0.00
2023-10-11T04:03:17.852Z,0.00
2023-10-11T04:04:16.945Z,0.00
2023-10-11T04:05:17.861Z,0.02
2023-10-11T04:06:17.115Z,0.00
2023-10-11T04:07:17.138Z,0.00
2023-10-11T04:08:17.305Z,0.00
2023-10-11T04:09:17.489Z,0.02
2023-10-11T04:10:17.440Z,0.00
2023-10-11T04:11:17.516Z,0.00
2023-10-11T04:12:17.694Z,0.02
2023-10-11T04:13:16.724Z,0.00
2023-10-11T04:14:17.888Z,0.00
2023-10-11T04:15:16.897Z,0.00
2023-10-11T04:16:17.013Z,0.00
2023-10-11T04:17:17.145Z,0.00
2023-10-11T04:18:17.318Z,0.00
2023-10-11T04:19:20.646Z,0.00
2023-10-11T04:20:17.460Z,0.00
2023-10-11T04:21:17.617Z,0.00
2023-10-11T04:22:17.636Z,0.02
2023-10-11T04:23:16.737Z,0.00
2023-10-11T04:24:17.820Z,0.00
2023-10-11T04:25:16.924Z,0.00
2023-10-11T04:26:17.933Z,0.00
2023-10-11T04:27:17.108Z,0.00
2023-10-11T04:28:18.123Z,0.00
2023-10-11T04:29:17.676Z,0.02
2023-10-11T04:30:17.499Z,0.02
2023-10-11T04:31:17.518Z,0.02
2023-10-11T04:32:16.560Z,0.00
2023-10-11T04:33:16.718Z,0.00
2023-10-11T04:34:16.764Z,0.00
2023-10-11T04:35:16.888Z,0.00
2023-10-11T04:36:17.083Z,0.02
2023-10-11T04:37:17.112Z,0.00
2023-10-11T04:38:17.239Z,0.00
2023-10-11T04:39:17.790Z,0.00
2023-10-11T04:40:17.600Z,0.00
2023-10-11T04:41:17.740Z,0.02
2023-10-11T04:42:16.709Z,0.02
2023-10-11T04:43:16.755Z,0.04
2023-10-11T04:44:22.105Z,0.02
2023-10-11T04:45:17.069Z,0.00
2023-10-11T04:46:17.389Z,0.02
2023-10-11T04:47:17.229Z,0.00
2023-10-11T04:48:16.400Z,0.00
2023-10-11T04:49:16.780Z,0.00
2023-10-11T04:50:17.426Z,0.00
2023-10-11T04:51:17.581Z,0.02
2023-10-11T04:52:16.690Z,0.00
2023-10-11T04:53:16.869Z,0.00
2023-10-11T04:54:17.095Z,0.02
2023-10-11T04:55:17.055Z,0.00
2023-10-11T04:56:17.142Z,0.01
2023-10-11T04:57:16.228Z,0.06
2023-10-11T04:58:16.447Z,0.01
2023-10-11T04:59:20.601Z,0.02
2023-10-11T05:00:16.592Z,0.00
2023-10-11T05:01:17.717Z,0.02
2023-10-11T05:02:16.771Z,0.02
2023-10-11T05:03:17.139Z,0.02
2023-10-11T05:04:17.347Z,0.02
2023-10-11T05:05:16.086Z,0.02
2023-10-11T05:06:17.159Z,0.02
2023-10-11T05:07:16.251Z,0.03
2023-10-11T05:08:17.329Z,0.02
2023-10-11T05:09:16.796Z,0.12
2023-10-11T05:10:16.576Z,0.03
2023-10-11T05:11:16.635Z,0.03
2023-10-11T05:12:17.715Z,0.15
2023-10-11T05:13:16.820Z,0.21
2023-10-11T05:14:16.904Z,0.05
2023-10-11T05:15:16.030Z,0.24
2023-10-11T05:16:17.149Z,0.31
2023-10-11T05:17:16.464Z,0.25
2023-10-11T05:18:16.372Z,0.26
2023-10-11T05:19:16.675Z,0.22
2023-10-11T05:20:16.451Z,0.39
2023-10-11T05:21:16.599Z,0.40
2023-10-11T05:22:16.714Z,0.46
2023-10-11T05:23:16.807Z,0.61
2023-10-11T05:24:15.917Z,0.69
2023-10-11T05:25:15.966Z,0.90
2023-10-11T05:26:16.111Z,0.77
2023-10-11T05:27:16.218Z,1.11
2023-10-11T05:28:16.307Z,1.33
2023-10-11T05:29:16.540Z,1.60
2023-10-11T05:30:16.513Z,1.74
2023-10-11T05:31:16.715Z,2.06
2023-10-11T05:32:16.719Z,2.37
2023-10-11T05:33:15.828Z,2.83
2023-10-11T05:34:15.977Z,3.22
2023-10-11T05:35:15.973Z,3.79
2023-10-11T05:36:16.098Z,3.98
2023-10-11T05:37:16.185Z,3.90
2023-10-11T05:38:16.289Z,4.46
2023-10-11T05:39:16.827Z,5.14
2023-10-11T05:40:16.478Z,6.03
2023-10-11T05:41:16.075Z,7.07
2023-10-11T05:42:16.071Z,8.19
2023-10-11T05:43:15.765Z,9.32
2023-10-11T05:44:15.881Z,10.59
2023-10-11T05:45:16.108Z,12.25
2023-10-11T05:46:16.139Z,13.86
2023-10-11T05:47:16.209Z,15.94
2023-10-11T05:48:16.442Z,18.24
2023-10-11T05:49:17.736Z,20.68
2023-10-11T05:50:15.534Z,23.30
2023-10-11T05:51:15.735Z,26.16
2023-10-11T05:52:15.747Z,29.20
2023-10-11T05:53:15.885Z,32.19
2023-10-11T05:54:16.022Z,36.19
2023-10-11T05:55:16.069Z,41.47
2023-10-11T05:56:16.191Z,46.43
2023-10-11T05:57:16.293Z,51.79
2023-10-11T05:58:17.343Z,57.34
2023-10-11T05:59:15.774Z,62.04
2023-10-11T06:00:16.587Z,66.89
2023-10-11T06:01:15.658Z,72.17
2023-10-11T06:02:15.761Z,79.08
2023-10-11T06:03:15.987Z,85.40
2023-10-11T06:04:16.065Z,90.72
2023-10-11T06:05:16.104Z,97.97
2023-10-11T06:06:16.342Z,106.72
2023-10-11T06:07:15.281Z,113.21
2023-10-11T06:08:15.476Z,120.57
2023-10-11T06:09:23.871Z,135.74
2023-10-11T06:10:15.680Z,136.50
2023-10-11T06:11:15.812Z,140.14
2023-10-11T06:12:15.971Z,153.85
2023-10-11T06:13:16.107Z,156.05
2023-10-11T06:14:15.190Z,166.99
2023-10-11T06:15:15.342Z,176.54
2023-10-11T06:16:15.418Z,188.12
2023-10-11T06:17:15.506Z,204.89
2023-10-11T06:18:15.709Z,208.56
2023-10-11T06:19:16.136Z,204.89
2023-10-11T06:20:15.927Z,201.23
2023-10-11T06:21:16.066Z,203.70
2023-10-11T06:22:15.199Z,212.44
2023-10-11T06:23:17.290Z,237.52
2023-10-11T06:24:15.372Z,248.75
2023-10-11T06:25:15.649Z,234.53
2023-10-11T06:26:15.632Z,241.23
2023-10-11T06:27:18.858Z,274.35
2023-10-11T06:28:15.889Z,291.49
2023-10-11T06:29:15.012Z,291.55
2023-10-11T06:30:15.173Z,297.14
2023-10-11T06:31:18.397Z,292.37
2023-10-11T06:33:16.619Z,308.91
2023-10-11T06:34:15.633Z,310.24
2023-10-11T06:35:15.789Z,336.29
2023-10-11T06:36:15.925Z,329.10
2023-10-11T06:37:15.061Z,321.01
2023-10-11T06:38:16.088Z,315.77
2023-10-11T06:39:15.167Z,321.38
2023-10-11T06:40:15.264Z,330.95
2023-10-11T06:41:17.369Z,338.32
2023-10-11T06:42:15.505Z,342.93
2023-10-11T06:43:15.455Z,343.92
2023-10-11T06:44:15.542Z,348.81
2023-10-11T06:45:17.776Z,351.36
2023-10-11T06:46:15.746Z,363.85
2023-10-11T06:47:14.833Z,361.22
2023-10-11T06:48:16.145Z,366.74
2023-10-11T06:49:15.119Z,371.48
2023-10-11T06:50:15.142Z,375.75
2023-10-11T06:51:15.332Z,386.38
2023-10-11T06:52:15.395Z,391.28
2023-10-11T06:53:17.581Z,400.78
2023-10-11T06:54:15.587Z,408.16
2023-10-11T06:55:16.361Z,429.14
2023-10-11T06:56:14.656Z,410.61
2023-10-11T06:57:15.833Z,409.69
2023-10-11T06:58:14.864Z,484.21
2023-10-11T06:59:15.049Z,485.15
2023-10-11T07:00:15.097Z,483.99
2023-10-11T07:01:15.402Z,490.76
2023-10-11T07:02:15.307Z,491.86
2023-10-11T07:03:17.023Z,477.41
2023-10-11T07:04:15.593Z,465.30
2023-10-11T07:05:14.591Z,423.77
2023-10-11T07:06:14.658Z,496.57
2023-10-11T07:07:14.713Z,469.18
2023-10-11T07:08:14.810Z,448.68
2023-10-11T07:09:14.903Z,503.85
2023-10-11T07:10:15.035Z,500.39
2023-10-11T07:11:16.137Z,488.60
2023-10-11T07:12:15.242Z,462.99
2023-10-11T07:13:15.326Z,448.73
2023-10-11T07:14:14.400Z,453.11
2023-10-11T07:15:14.569Z,450.95
2023-10-11T07:16:14.757Z,458.68
2023-10-11T07:17:15.792Z,459.44
2023-10-11T07:18:15.903Z,493.93
2023-10-11T07:19:14.880Z,572.38
2023-10-11T07:20:14.985Z,498.44
2023-10-11T07:21:17.455Z,471.47
2023-10-11T07:22:15.162Z,468.99
2023-10-11T07:23:15.269Z,481.54
2023-10-11T07:24:14.313Z,517.14
2023-10-11T07:25:14.396Z,523.02
2023-10-11T07:26:14.502Z,524.37
2023-10-11T07:27:14.667Z,509.08
2023-10-11T07:28:14.719Z,510.07
2023-10-11T07:29:19.999Z,496.58
2023-10-11T07:30:15.872Z,505.64
2023-10-11T07:31:17.047Z,488.56
2023-10-11T07:32:15.126Z,492.07
2023-10-11T07:33:15.225Z,518.24
2023-10-11T07:34:15.317Z,534.06
2023-10-11T07:35:14.188Z,527.73
2023-10-11T07:36:14.336Z,525.98
2023-10-11T07:37:15.582Z,546.57
2023-10-11T07:38:14.436Z,552.37
2023-10-11T07:39:14.615Z,560.49
2023-10-11T07:40:14.638Z,557.46
2023-10-11T07:41:14.726Z,574.38
2023-10-11T07:42:14.881Z,609.70
2023-10-11T07:43:15.980Z,618.73
2023-10-11T07:44:15.036Z,626.44
2023-10-11T07:45:14.636Z,648.16
2023-10-11T07:46:14.232Z,652.87
2023-10-11T07:47:14.272Z,644.33
2023-10-11T07:48:14.468Z,653.38
2023-10-11T07:49:24.696Z,676.85
2023-10-11T07:50:14.541Z,650.93
2023-10-11T07:51:14.660Z,653.62
2023-10-11T07:52:14.765Z,679.31
2023-10-11T07:53:14.819Z,692.92
2023-10-11T07:54:14.899Z,696.94
2023-10-11T07:55:17.095Z,693.23
2023-10-11T07:56:14.043Z,691.59
2023-10-11T07:57:15.379Z,680.20
2023-10-11T07:58:14.220Z,665.77
2023-10-11T07:59:14.321Z,668.76
2023-10-11T08:00:14.470Z,654.75
2023-10-11T08:01:14.753Z,581.47
2023-10-11T08:02:14.702Z,578.80
2023-10-11T08:03:14.890Z,563.00
2023-10-11T08:04:13.840Z,630.47
2023-10-11T08:05:13.961Z,562.80
2023-10-11T08:06:13.996Z,589.74
2023-10-11T08:07:14.217Z,597.82
2023-10-11T08:08:14.206Z,632.94
2023-10-11T08:09:14.286Z,619.98
2023-10-11T08:10:14.312Z,611.36
2023-10-11T08:11:14.417Z,603.34
2023-10-11T08:12:14.535Z,639.30
2023-10-11T08:13:14.555Z,665.02
2023-10-11T08:14:13.596Z,738.11
2023-10-11T08:15:14.738Z,762.52
2023-10-11T08:16:13.812Z,752.61
2023-10-11T08:17:13.844Z,757.87
2023-10-11T08:18:14.060Z,739.57
2023-10-11T08:19:14.945Z,750.40
2023-10-11T08:20:14.072Z,792.24
2023-10-11T08:21:14.178Z,806.70
2023-10-11T08:22:14.208Z,813.69
2023-10-11T08:23:14.394Z,812.24
2023-10-11T08:24:14.417Z,807.50
2023-10-11T08:25:13.422Z,819.04
2023-10-11T08:26:13.474Z,810.70
2023-10-11T08:27:13.592Z,826.39
2023-10-11T08:28:14.276Z,828.96
2023-10-11T08:29:13.780Z,827.45
2023-10-11T08:30:13.900Z,831.70
2023-10-11T08:31:13.969Z,839.72
2023-10-11T08:32:14.044Z,847.84
2023-10-11T08:33:17.344Z,846.65
2023-10-11T08:34:14.194Z,818.71
2023-10-11T08:35:14.292Z,793.99
2023-10-11T08:36:17.610Z,804.77
2023-10-11T08:37:13.392Z,828.74
2023-10-11T08:38:13.542Z,799.48
2023-10-11T08:39:13.631Z,825.84
2023-10-11T08:40:14.090Z,774.89
2023-10-11T08:41:13.745Z,745.94
2023-10-11T08:42:13.877Z,767.13
2023-10-11T08:43:13.903Z,782.54
2023-10-11T08:44:14.008Z,767.80
2023-10-11T08:45:14.163Z,774.98
2023-10-11T08:46:13.274Z,774.39
2023-10-11T08:47:13.292Z,813.78
2023-10-11T08:48:13.437Z,863.58
2023-10-11T08:49:13.495Z,873.89
2023-10-11T08:50:13.546Z,871.78
2023-10-11T08:51:13.811Z,882.84
2023-10-11T08:52:13.688Z,906.20
2023-10-11T08:53:13.789Z,922.44
2023-10-11T08:54:16.173Z,911.52
2023-10-11T08:55:13.892Z,918.04
2023-10-11T08:56:14.031Z,900.46
2023-10-11T08:57:13.016Z,908.65
2023-10-11T08:58:13.082Z,916.46
2023-10-11T08:59:13.200Z,915.14
2023-10-11T09:00:16.471Z,876.12
2023-10-11T09:01:13.428Z,945.52
2023-10-11T09:02:16.641Z,965.89
2023-10-11T09:03:13.674Z,959.88
2023-10-11T09:04:13.838Z,973.62
2023-10-11T09:05:13.739Z,959.91
2023-10-11T09:06:13.861Z,913.82
2023-10-11T09:07:12.873Z,897.55
2023-10-11T09:08:13.364Z,983.70
2023-10-11T09:09:13.059Z,987.87
2023-10-11T09:10:13.149Z,991.31
2023-10-11T09:11:13.850Z,985.95
2023-10-11T09:12:13.310Z,992.66
2023-10-11T09:13:13.349Z,967.31
2023-10-11T09:14:13.464Z,1009.21
2023-10-11T09:15:13.565Z,1012.32
2023-10-11T09:16:13.812Z,1011.40
2023-10-11T09:17:13.658Z,1012.98
2023-10-11T09:18:12.828Z,1021.61
2023-10-11T09:19:12.820Z,1006.39
2023-10-11T09:20:12.890Z,1012.58
2023-10-11T09:21:13.027Z,986.01
2023-10-11T09:22:13.025Z,1033.16
2023-10-11T09:23:17.243Z,1035.62
2023-10-11T09:24:13.212Z,1014.53
2023-10-11T09:25:17.504Z,997.92
2023-10-11T09:26:13.324Z,1032.41
2023-10-11T09:27:13.489Z,1027.78
2023-10-11T09:28:13.495Z,1033.09
2023-10-11T09:29:14.569Z,1028.60
2023-10-11T09:30:12.697Z,1023.90
2023-10-11T09:31:13.517Z,1024.20
2023-10-11T09:32:13.751Z,1034.81
2023-10-11T09:33:12.976Z,1030.38
2023-10-11T09:34:17.299Z,1040.50
2023-10-11T09:35:13.026Z,1037.00
2023-10-11T09:36:13.135Z,1022.01
2023-10-11T09:37:13.751Z,1027.71
2023-10-11T09:38:13.272Z,1035.62
2023-10-11T09:39:13.389Z,1038.12
2023-10-11T09:40:13.435Z,1037.16
2023-10-11T09:41:12.466Z,1035.58
2023-10-11T09:42:17.986Z,1040.26
2023-10-11T09:43:13.592Z,1037.84
2023-10-11T09:44:13.722Z,1047.35
2023-10-11T09:45:12.854Z,1043.18
2023-10-11T09:46:12.982Z,1043.68
2023-10-11T09:47:12.971Z,1043.55
2023-10-11T09:48:13.277Z,1042.54
2023-10-11T09:49:13.177Z,1044.04
2023-10-11T09:50:13.278Z,1043.98
2023-10-11T09:51:12.371Z,1045.00
2023-10-11T09:52:12.397Z,1037.73
2023-10-11T09:53:13.444Z,1033.40
2023-10-11T09:54:13.352Z,1026.97
2023-10-11T09:55:12.623Z,1040.95
2023-10-11T09:56:12.695Z,1033.09
2023-10-11T09:57:17.993Z,1033.10
2023-10-11T09:58:12.914Z,1033.68
2023-10-11T09:59:12.941Z,1052.61
2023-10-11T10:00:13.067Z,1060.98
2023-10-11T10:01:13.290Z,1057.16
2023-10-11T10:02:12.195Z,1059.03
2023-10-11T10:03:12.410Z,1048.10
2023-10-11T10:04:12.462Z,1035.35
2023-10-11T10:05:12.499Z,984.17
2023-10-11T10:06:12.591Z,1031.06
2023-10-11T10:07:12.630Z,1036.55
2023-10-11T10:08:12.658Z,1038.90
2023-10-11T10:09:12.845Z,1037.30
2023-10-11T10:10:12.901Z,1033.10
2023-10-11T10:11:12.933Z,1028.35
2023-10-11T10:12:13.137Z,1038.95
2023-10-11T10:13:12.068Z,1030.91
2023-10-11T10:14:12.147Z,1009.73
2023-10-11T10:15:12.198Z,978.53
2023-10-11T10:16:12.297Z,963.48
2023-10-11T10:17:20.786Z,1042.50
2023-10-11T10:18:12.566Z,1038.87
2023-10-11T10:19:12.574Z,1051.99
2023-10-11T10:20:12.629Z,1053.07
2023-10-11T10:21:12.782Z,1012.32
2023-10-11T10:22:12.798Z,1035.27
2023-10-11T10:23:14.151Z,1004.71
2023-10-11T10:24:11.995Z,1029.89
2023-10-11T10:25:12.149Z,1042.13
2023-10-11T10:26:12.196Z,1011.49
2023-10-11T10:27:12.273Z,1086.81
2023-10-11T10:28:12.353Z,1071.24
2023-10-11T10:29:12.578Z,1068.39
2023-10-11T10:30:12.570Z,1062.12
2023-10-11T10:31:12.724Z,1064.79
2023-10-11T10:32:12.713Z,1068.63
2023-10-11T10:33:12.818Z,1061.56
2023-10-11T10:34:15.810Z,1034.35
2023-10-11T10:35:11.993Z,1035.49
2023-10-11T10:36:12.020Z,1060.42
2023-10-11T10:37:12.993Z,1076.48
2023-10-11T10:38:12.156Z,1086.33
2023-10-11T10:39:12.261Z,1099.32
2023-10-11T10:40:12.331Z,1100.21
2023-10-11T10:41:12.406Z,1088.23
2023-10-11T10:42:12.629Z,986.66
2023-10-11T10:43:12.558Z,1058.30
2023-10-11T10:44:12.649Z,1065.58
2023-10-11T10:45:11.683Z,1031.19
2023-10-11T10:46:11.834Z,1050.38
2023-10-11T10:47:11.807Z,1056.08
2023-10-11T10:48:11.945Z,1046.57
2023-10-11T10:49:11.955Z,1035.76
2023-10-11T10:50:12.191Z,1040.23
2023-10-11T10:51:12.102Z,1034.84
2023-10-11T10:52:12.190Z,1003.51
2023-10-11T10:53:12.448Z,1043.87
2023-10-11T10:54:12.371Z,1030.29
2023-10-11T10:55:12.365Z,1053.81
2023-10-11T10:56:12.462Z,1036.36
2023-10-11T10:57:11.484Z,1070.98
2023-10-11T10:58:11.642Z,1004.60
2023-10-11T10:59:11.638Z,1036.10
2023-10-11T11:00:12.713Z,1061.03
2023-10-11T11:01:11.799Z,1058.66
2023-10-11T11:02:11.899Z,1070.26
2023-10-11T11:03:12.112Z,1068.35
2023-10-11T11:04:12.042Z,1064.57
2023-10-11T11:05:12.161Z,1098.41
2023-10-11T11:06:12.178Z,1117.25
2023-10-11T11:07:12.219Z,1130.55
2023-10-11T11:08:12.311Z,1105.31
2023-10-11T11:09:11.361Z,1141.78
2023-10-11T11:10:11.387Z,1133.31
2023-10-11T11:11:11.472Z,1134.03
2023-10-11T11:12:11.602Z,1128.30
2023-10-11T11:13:11.609Z,1121.16
2023-10-11T11:14:11.684Z,1081.44
2023-10-11T11:15:11.752Z,1105.50
2023-10-11T11:16:11.779Z,1112.23
2023-10-11T11:17:11.920Z,1099.28
2023-10-11T11:18:14.678Z,1119.78
2023-10-11T11:19:12.025Z,1104.41
2023-10-11T11:20:12.093Z,1062.20
2023-10-11T11:21:12.223Z,1100.85
2023-10-11T11:22:11.165Z,1102.27
2023-10-11T11:23:17.515Z,1087.09
2023-10-11T11:24:11.349Z,1101.65
2023-10-11T11:25:11.348Z,1099.56
2023-10-11T11:27:11.564Z,1092.15
2023-10-11T11:28:11.548Z,1105.10
2023-10-11T11:29:13.750Z,1068.23
2023-10-11T11:30:11.639Z,1025.33
2023-10-11T11:31:11.833Z,1074.87
2023-10-11T11:32:11.732Z,1140.54
2023-10-11T11:33:18.069Z,1125.12
2023-10-11T11:34:11.855Z,1114.98
2023-10-11T11:35:12.112Z,1136.83
2023-10-11T11:36:10.956Z,1126.05
2023-10-11T11:38:11.067Z,1132.09
2023-10-11T11:39:11.172Z,1155.40
2023-10-11T11:40:11.165Z,1166.79
2023-10-11T11:41:22.173Z,1156.36
2023-10-11T11:42:12.306Z,1161.75
2023-10-11T11:43:11.322Z,1121.38
2023-10-11T11:44:11.380Z,1127.13
2023-10-11T11:45:11.502Z,1141.56
2023-10-11T11:46:11.594Z,1158.00
2023-10-11T11:47:11.655Z,1169.13
2023-10-11T11:48:11.765Z,1161.87
2023-10-11T11:49:11.649Z,1151.25
2023-10-11T11:50:11.696Z,1171.34
2023-10-11T11:51:11.782Z,1186.00
2023-10-11T11:52:11.100Z,1184.02
2023-10-11T11:53:10.843Z,1163.47
2023-10-11T11:54:11.936Z,1168.52
2023-10-11T11:55:10.872Z,1170.35
2023-10-11T11:56:10.968Z,1164.69
2023-10-11T11:57:11.063Z,1166.67
2023-10-11T11:58:13.390Z,1165.37
2023-10-11T11:59:11.186Z,1170.61
2023-10-11T12:00:11.949Z,1164.20
2023-10-11T12:01:11.408Z,1164.88
2023-10-11T12:02:11.440Z,1177.52
2023-10-11T12:03:11.669Z,1179.50
2023-10-11T12:04:11.569Z,1181.37
2023-10-11T12:05:10.611Z,1158.14
2023-10-11T12:06:11.808Z,1149.16
2023-10-11T12:07:10.886Z,1126.41
2023-10-11T12:08:10.926Z,1107.79
2023-10-11T12:09:10.995Z,1129.24
2023-10-11T12:10:11.074Z,1162.83
2023-10-11T12:11:11.083Z,1164.73
2023-10-11T12:12:11.134Z,1140.67
2023-10-11T12:13:11.206Z,1160.18
2023-10-11T12:14:11.228Z,1157.44
2023-10-11T12:15:11.306Z,1151.12
2023-10-11T12:16:11.293Z,1147.77
2023-10-11T12:17:12.337Z,1136.72
2023-10-11T12:18:11.534Z,1152.60
2023-10-11T12:19:10.426Z,1145.30
2023-10-11T12:20:11.491Z,1107.12
2023-10-11T12:21:10.593Z,1023.60
2023-10-11T12:22:10.572Z,1121.98
2023-10-11T12:23:10.643Z,1139.03
2023-10-11T12:24:20.149Z,1079.98
2023-10-11T12:25:11.810Z,1135.19
2023-10-11T12:26:10.718Z,1127.62
2023-10-11T12:27:11.756Z,1134.96
2023-10-11T12:28:11.787Z,1137.50
2023-10-11T12:29:10.895Z,1159.12
2023-10-11T12:30:10.980Z,1138.63
2023-10-11T12:31:11.007Z,1133.15
2023-10-11T12:32:10.985Z,1130.96
2023-10-11T12:33:11.285Z,1121.01
2023-10-11T12:34:11.034Z,1104.27
2023-10-11T12:35:11.041Z,1060.85
2023-10-11T12:36:11.192Z,1065.34
2023-10-11T12:37:11.264Z,1083.92
2023-10-11T12:38:11.122Z,1072.91
2023-10-11T12:39:10.192Z,1070.77
2023-10-11T12:40:10.220Z,1080.22
2023-10-11T12:41:10.200Z,1057.24
2023-10-11T12:42:10.297Z,1080.02
2023-10-11T12:43:10.228Z,1096.60
2023-10-11T12:44:10.291Z,1090.90
2023-10-11T12:45:10.479Z,1079.85
2023-10-11T12:46:20.293Z,1111.55
2023-10-11T12:47:10.368Z,1086.76
2023-10-11T12:48:10.463Z,1084.74
2023-10-11T12:49:10.423Z,1087.68
2023-10-11T12:50:10.437Z,1110.19